KICL/ICL METAR and TAF weather

Enter ICAO airport designator
Station Type Date Time Source
KICL METAR 2019/08/22 04:35 UTC NOAA

KICL 220435Z AUTO 02004KT 10SM BKN011 OVC017 21/21 A3008 RMK AO2


Station Type Date Time Source
KICL Decoded METAR 2019/08/22 04:35 UTC NOAA

Station name not available
Aug 22, 2019 - 12:35 AM EDT / 2019.08.22 0435 UTC
Wind: from the NNE (020 degrees) at 5 MPH (4 KT):0
Visibility: 10 mile(s):0
Sky conditions: overcast
Temperature: 69 F (21 C)
Dew Point: 69 F (21 C)
Relative Humidity: 100%
Pressure (altimeter): 30.08 in. Hg (1018 hPa)
ob: KICL 220435Z AUTO 02004KT 10SM BKN011 OVC017 21/21 A3008 RMK AO2
cycle: 4

Station Type Date Time Source
KICL TAF UTC NOAA

Error!

Example: see airport list